createdAt,value
2022-08-09T00:04:40.305Z,1.27
2022-08-09T00:10:43.877Z,1.00
2022-08-09T00:16:45.802Z,1.27
2022-08-09T00:22:49.348Z,0.98
2022-08-09T00:28:52.630Z,1.27
2022-08-09T00:34:56.116Z,1.15
2022-08-09T00:40:58.114Z,1.23
2022-08-09T00:47:05.256Z,1.40
2022-08-09T00:53:10.308Z,1.20
2022-08-09T00:59:12.337Z,1.10
2022-08-09T01:05:46.433Z,1.40
2022-08-09T01:12:00.366Z,1.10
2022-08-09T01:18:08.544Z,1.10
2022-08-09T01:24:50.477Z,1.48
2022-08-09T01:30:58.228Z,1.50
2022-08-09T01:37:04.075Z,2.28
2022-08-09T01:43:07.510Z,2.10
2022-08-09T01:49:14.725Z,1.80
2022-08-09T01:55:17.239Z,2.25
2022-08-09T02:01:20.253Z,1.83
2022-08-09T02:08:39.193Z,2.30
2022-08-09T02:14:06.943Z,1.95
2022-08-09T02:20:10.082Z,2.20
2022-08-09T02:26:25.281Z,2.22
2022-08-09T02:32:33.981Z,2.42
2022-08-09T02:38:47.661Z,2.55
2022-08-09T02:44:55.330Z,2.00
2022-08-09T02:51:02.494Z,2.25
2022-08-09T02:57:13.895Z,2.40
2022-08-09T03:04:12.576Z,2.28
2022-08-09T03:09:56.232Z,2.33
2022-08-09T03:16:06.767Z,2.67
2022-08-09T03:22:12.126Z,2.20
2022-08-09T03:28:22.469Z,2.38
2022-08-09T03:34:24.524Z,2.30
2022-08-09T03:40:30.893Z,2.40
2022-08-09T03:46:33.019Z,2.58
2022-08-09T03:52:36.493Z,3.50
2022-08-09T03:58:38.388Z,2.60
2022-08-09T04:04:41.089Z,2.60
2022-08-09T04:10:49.705Z,2.60
2022-08-09T04:16:51.669Z,2.65
2022-08-09T04:22:59.612Z,3.25
2022-08-09T04:29:05.215Z,3.58
2022-08-09T04:35:13.172Z,2.90
2022-08-09T04:41:17.082Z,3.10
2022-08-09T04:47:19.216Z,3.40
2022-08-09T04:53:20.999Z,3.35
2022-08-09T04:59:23.898Z,3.60
2022-08-09T05:05:31.794Z,3.67
2022-08-09T05:11:47.803Z,4.20
2022-08-09T05:18:42.843Z,4.15
2022-08-09T05:24:12.792Z,3.72
2022-08-09T05:30:17.614Z,3.60
2022-08-09T05:36:21.142Z,3.88
2022-08-09T05:42:30.641Z,3.33
2022-08-09T05:48:33.282Z,3.80
2022-08-09T05:54:35.279Z,3.55
2022-08-09T06:00:41.080Z,4.07
2022-08-09T06:06:49.619Z,3.80
2022-08-09T06:13:11.811Z,3.65
2022-08-09T06:19:14.832Z,3.25
2022-08-09T06:25:17.000Z,3.17
2022-08-09T06:31:30.583Z,3.17
2022-08-09T06:37:33.405Z,2.83
2022-08-09T06:43:55.149Z,3.08
2022-08-09T06:50:13.814Z,3.15
2022-08-09T06:56:16.791Z,2.58
2022-08-09T07:02:20.213Z,2.50
2022-08-09T07:08:23.084Z,2.70
2022-08-09T07:14:27.271Z,2.28
2022-08-09T07:20:29.229Z,2.53
2022-08-09T07:26:31.019Z,2.20
2022-08-09T07:32:34.580Z,1.70
2022-08-09T07:38:36.777Z,2.20
2022-08-09T07:44:52.511Z,1.98
2022-08-09T07:51:10.156Z,2.00
2022-08-09T07:57:17.827Z,2.30
2022-08-09T08:03:19.944Z,1.80
2022-08-09T08:09:36.396Z,1.95
2022-08-09T08:15:46.366Z,1.52
2022-08-09T08:21:53.144Z,1.70
2022-08-09T08:27:54.963Z,1.60
2022-08-09T08:33:59.831Z,1.40
2022-08-09T08:40:03.387Z,1.23
2022-08-09T08:46:32.309Z,1.40
2022-08-09T08:58:52.911Z,1.40
2022-08-09T09:04:57.560Z,1.33
2022-08-09T09:11:05.989Z,1.35
2022-08-09T09:17:07.713Z,1.53
2022-08-09T09:23:14.732Z,1.35
2022-08-09T09:29:58.016Z,1.50
2022-08-09T09:36:02.356Z,1.50
2022-08-09T09:42:10.427Z,1.48
2022-08-09T09:48:13.863Z,1.50
2022-08-09T09:54:22.674Z,1.50
2022-08-09T10:00:24.948Z,1.30
2022-08-09T10:06:32.163Z,1.60
2022-08-09T10:12:37.374Z,1.50
2022-08-09T10:18:54.489Z,1.40
2022-08-09T10:24:56.942Z,1.60
2022-08-09T10:37:21.272Z,1.50
2022-08-09T10:43:24.814Z,1.70
2022-08-09T10:56:23.031Z,1.80
2022-08-09T11:03:13.977Z,1.67
2022-08-09T11:09:16.165Z,1.77
2022-08-09T11:15:33.705Z,2.10
2022-08-09T11:21:57.287Z,1.90
2022-08-09T11:28:54.139Z,1.80
2022-08-09T11:35:00.338Z,1.60
2022-08-09T11:41:03.301Z,1.50
2022-08-09T11:47:11.033Z,1.75
2022-08-09T11:53:58.550Z,2.05
2022-08-09T11:59:38.069Z,1.60
2022-08-09T12:05:42.361Z,1.63
2022-08-09T12:12:28.877Z,1.55
2022-08-09T12:18:33.654Z,1.60
2022-08-09T12:24:35.596Z,1.30
2022-08-09T12:30:42.069Z,1.40
2022-08-09T12:36:59.173Z,1.60
2022-08-09T12:44:05.555Z,1.63
2022-08-09T12:50:05.944Z,1.50
2022-08-09T12:56:43.762Z,1.60
2022-08-09T13:02:59.094Z,1.58
2022-08-09T13:09:02.580Z,1.60
2022-08-09T13:15:09.687Z,1.67
2022-08-09T13:22:37.693Z,1.60
2022-08-09T13:27:54.784Z,1.48
2022-08-09T13:33:58.471Z,1.45
2022-08-09T13:41:51.670Z,1.30
2022-08-09T13:47:16.126Z,1.50
2022-08-09T13:52:43.770Z,1.27
2022-08-09T13:58:49.450Z,1.40
2022-08-09T14:04:59.827Z,1.27
2022-08-09T14:11:02.234Z,1.15
2022-08-09T14:17:04.184Z,1.10
2022-08-09T14:30:03.838Z,1.20
2022-08-09T14:35:52.048Z,1.20
2022-08-09T14:41:54.816Z,1.38
2022-08-09T14:47:58.115Z,1.42
2022-08-09T14:54:02.133Z,1.58
2022-08-09T15:00:05.660Z,1.40
2022-08-09T15:06:11.468Z,1.30
2022-08-09T15:12:13.251Z,1.40
2022-08-09T15:18:15.502Z,1.27
2022-08-09T15:24:24.183Z,1.10
2022-08-09T15:30:58.706Z,1.40
2022-08-09T15:36:52.567Z,1.00
2022-08-09T15:42:54.547Z,1.20
2022-08-09T15:49:21.309Z,1.02
2022-08-09T15:55:20.877Z,1.20
2022-08-09T16:01:22.958Z,1.00
2022-08-09T16:07:25.836Z,1.00
2022-08-09T16:14:02.783Z,0.83
2022-08-09T16:20:04.134Z,0.98
2022-08-09T16:26:06.887Z,1.20
2022-08-09T16:32:35.034Z,1.10
2022-08-09T16:38:37.296Z,0.90
2022-08-09T16:50:59.353Z,0.80
2022-08-09T16:57:01.812Z,1.05
2022-08-09T17:03:04.202Z,0.70
2022-08-09T17:09:44.532Z,0.80
2022-08-09T17:15:58.602Z,0.75
2022-08-09T17:21:54.536Z,0.93
2022-08-09T17:28:03.524Z,0.80
2022-08-09T17:34:05.641Z,0.70
2022-08-09T17:40:28.881Z,0.63
2022-08-09T17:46:33.989Z,0.73
2022-08-09T17:52:37.346Z,0.65
2022-08-09T18:04:47.892Z,0.75
2022-08-09T18:11:02.159Z,0.60
2022-08-09T18:17:04.766Z,0.80
2022-08-09T18:23:07.179Z,0.73
2022-08-09T18:30:40.039Z,0.90
2022-08-09T18:35:48.083Z,0.80
2022-08-09T18:41:54.042Z,0.90
2022-08-09T18:47:56.075Z,0.70
2022-08-09T18:54:06.634Z,0.68
2022-08-09T19:00:20.358Z,0.68
2022-08-09T19:06:22.837Z,0.80
2022-08-09T19:12:29.655Z,1.27
2022-08-09T19:18:38.480Z,0.90
2022-08-09T19:25:12.084Z,1.02
2022-08-09T19:31:07.608Z,0.88
2022-08-09T19:37:09.703Z,0.90
2022-08-09T19:44:02.272Z,1.13
2022-08-09T19:50:06.998Z,1.00
2022-08-09T19:56:06.479Z,0.98
2022-08-09T20:03:24.110Z,1.13
2022-08-09T20:14:37.291Z,1.42
2022-08-09T20:20:54.156Z,1.20
2022-08-09T20:26:57.219Z,1.10
2022-08-09T20:33:00.338Z,0.90
2022-08-09T20:39:28.189Z,1.10
2022-08-09T20:45:59.228Z,1.25
2022-08-09T20:51:50.859Z,0.98
2022-08-09T20:58:08.177Z,1.48
2022-08-09T21:05:52.733Z,0.90
2022-08-09T21:10:36.799Z,1.20
2022-08-09T21:16:41.209Z,1.20
2022-08-09T21:22:47.025Z,1.30
2022-08-09T21:28:56.240Z,1.00
2022-08-09T21:34:58.965Z,1.05
2022-08-09T21:41:00.720Z,1.10
2022-08-09T21:47:04.950Z,1.25
2022-08-09T21:53:23.843Z,1.40
2022-08-09T21:59:29.562Z,1.10
2022-08-09T22:05:44.833Z,1.27
2022-08-09T22:12:09.532Z,1.20
2022-08-09T22:18:12.078Z,1.15
2022-08-09T22:24:17.006Z,1.10
2022-08-09T22:30:26.002Z,0.93
2022-08-09T22:36:37.298Z,1.45
2022-08-09T22:42:47.690Z,1.20
2022-08-09T22:48:50.616Z,1.23
2022-08-09T22:54:55.139Z,1.10
2022-08-09T23:00:58.080Z,1.55
2022-08-09T23:07:18.618Z,1.20
2022-08-09T23:13:40.339Z,1.40
2022-08-09T23:20:07.391Z,1.50
2022-08-09T23:26:04.674Z,1.35
2022-08-09T23:32:06.593Z,1.35
2022-08-09T23:38:08.328Z,1.60
2022-08-09T23:44:10.105Z,1.42
2022-08-09T23:50:12.982Z,1.20
2022-08-09T23:56:14.783Z,1.70
